createdAt,value
2022-12-25T00:01:47.896Z,24.40
2022-12-25T00:06:52.232Z,19.17
2022-12-25T00:11:55.056Z,20.58
2022-12-25T00:16:57.820Z,24.25
2022-12-25T00:22:02.109Z,23.25
2022-12-25T00:27:05.104Z,22.15
2022-12-25T00:32:08.611Z,24.10
2022-12-25T00:37:12.789Z,25.75
2022-12-25T00:42:21.384Z,24.65
2022-12-25T00:47:24.521Z,24.67
2022-12-25T00:52:28.762Z,26.35
2022-12-25T00:57:31.662Z,28.67
2022-12-25T01:02:34.683Z,24.27
2022-12-25T01:07:38.939Z,26.15
2022-12-25T01:12:43.484Z,30.95
2022-12-25T01:17:46.550Z,23.10
2022-12-25T01:22:50.755Z,28.73
2022-12-25T01:27:53.525Z,28.77
2022-12-25T01:32:56.307Z,27.90
2022-12-25T01:38:00.630Z,27.50
2022-12-25T01:43:03.507Z,24.50
2022-12-25T01:48:11.127Z,33.10
2022-12-25T01:53:15.476Z,25.67
2022-12-25T01:58:19.093Z,28.88
2022-12-25T02:03:23.547Z,27.48
2022-12-25T02:08:28.210Z,32.47
2022-12-25T02:13:31.042Z,28.60
2022-12-25T02:18:42.156Z,31.30
2022-12-25T02:24:10.465Z,26.10
2022-12-25T02:29:22.675Z,34.57
2022-12-25T02:34:32.925Z,28.52
2022-12-25T02:40:01.489Z,27.23
2022-12-25T02:45:23.810Z,29.55
2022-12-25T02:50:44.974Z,31.38
2022-12-25T02:56:08.183Z,28.70
2022-12-25T03:01:34.163Z,31.77
2022-12-25T03:06:44.301Z,27.17
2022-12-25T03:12:00.104Z,29.77
2022-12-25T03:17:04.417Z,27.83
2022-12-25T03:22:28.007Z,27.67
2022-12-25T03:27:34.600Z,23.58
2022-12-25T03:32:46.085Z,27.55
2022-12-25T03:38:17.894Z,30.60
2022-12-25T03:43:48.322Z,24.70
2022-12-25T03:49:18.253Z,32.28
2022-12-25T03:54:45.207Z,28.90
2022-12-25T04:00:05.230Z,24.63
2022-12-25T04:05:30.973Z,32.00
2022-12-25T04:10:51.242Z,25.67
2022-12-25T04:16:11.918Z,28.55
2022-12-25T04:21:34.217Z,28.05
2022-12-25T04:26:54.414Z,29.60
2022-12-25T04:32:14.682Z,26.58
2022-12-25T04:37:18.849Z,29.63
2022-12-25T04:42:21.800Z,23.27
2022-12-25T04:47:25.028Z,27.35
2022-12-25T04:52:29.575Z,43.70
2022-12-25T04:57:32.382Z,44.50
2022-12-25T05:02:35.873Z,36.78
2022-12-25T05:07:40.142Z,32.03
2022-12-25T05:12:43.642Z,27.73
2022-12-25T05:17:46.509Z,24.13
2022-12-25T05:22:52.038Z,24.00
2022-12-25T05:27:54.834Z,25.88
2022-12-25T05:32:57.665Z,25.23
2022-12-25T05:38:01.864Z,23.27
2022-12-25T05:43:04.597Z,28.13
2022-12-25T05:48:07.809Z,27.42
2022-12-25T05:53:14.365Z,21.65
2022-12-25T05:58:17.192Z,23.35
2022-12-25T06:03:20.043Z,23.83
2022-12-25T06:08:24.346Z,23.55
2022-12-25T06:13:27.116Z,22.45
2022-12-25T06:18:29.923Z,21.80
2022-12-25T06:23:34.614Z,19.17
2022-12-25T06:28:38.576Z,22.85
2022-12-25T06:33:42.942Z,26.23
2022-12-25T06:38:47.234Z,32.47
2022-12-25T06:43:50.673Z,26.25
2022-12-25T06:48:54.019Z,29.08
2022-12-25T06:53:58.933Z,27.35
2022-12-25T06:59:03.340Z,24.50
2022-12-25T07:04:08.755Z,22.67
2022-12-25T07:09:12.952Z,27.83
2022-12-25T07:14:23.393Z,25.58
2022-12-25T07:19:26.930Z,22.63
2022-12-25T07:24:31.111Z,24.02
2022-12-25T07:29:33.919Z,27.40
2022-12-25T07:34:36.820Z,26.25
2022-12-25T07:39:40.981Z,23.50
2022-12-25T07:44:43.937Z,23.70
2022-12-25T07:49:46.982Z,21.80
2022-12-25T07:54:51.170Z,19.08
2022-12-25T07:59:53.921Z,22.10
2022-12-25T08:04:57.037Z,24.90
2022-12-25T08:10:01.182Z,24.48
2022-12-25T08:15:04.112Z,21.00
2022-12-25T08:20:08.658Z,20.15
2022-12-25T08:25:12.884Z,21.73
2022-12-25T08:30:15.920Z,16.80
2022-12-25T08:35:18.825Z,20.08
2022-12-25T08:40:23.035Z,20.77
2022-12-25T08:45:31.228Z,20.52
2022-12-25T08:50:37.429Z,22.98
2022-12-25T08:55:43.170Z,22.88
2022-12-25T09:00:45.995Z,18.88
2022-12-25T09:05:48.756Z,20.77
2022-12-25T09:10:52.922Z,20.63
2022-12-25T09:15:55.718Z,20.52
2022-12-25T09:21:00.185Z,17.10
2022-12-25T09:26:06.209Z,20.05
2022-12-25T09:31:09.124Z,25.25
2022-12-25T09:36:12.064Z,18.60
2022-12-25T09:41:21.841Z,17.88
2022-12-25T09:46:34.729Z,21.98
2022-12-25T09:51:41.945Z,19.35
2022-12-25T09:56:46.151Z,17.33
2022-12-25T10:02:02.163Z,21.08
2022-12-25T10:07:17.391Z,18.27
2022-12-25T10:12:38.417Z,45.35
2022-12-25T10:17:56.449Z,17.73
2022-12-25T10:23:02.546Z,20.57
2022-12-25T10:28:14.241Z,18.13
2022-12-25T10:33:22.534Z,17.13
2022-12-25T10:38:25.479Z,17.27
2022-12-25T10:43:36.690Z,19.45
2022-12-25T10:48:42.908Z,16.90
2022-12-25T10:53:45.772Z,17.85
2022-12-25T10:58:49.927Z,22.77
2022-12-25T11:03:53.650Z,17.50
2022-12-25T11:08:59.353Z,16.08
2022-12-25T11:14:04.238Z,20.85
2022-12-25T11:19:27.768Z,15.20
2022-12-25T11:24:32.956Z,19.00
2022-12-25T11:29:44.909Z,18.08
2022-12-25T11:34:49.825Z,19.85
2022-12-25T11:39:52.788Z,15.65
2022-12-25T11:45:02.986Z,16.75
2022-12-25T11:50:15.116Z,19.10
2022-12-25T11:55:22.774Z,16.23
2022-12-25T12:00:28.461Z,13.57
2022-12-25T12:05:36.114Z,18.67
2022-12-25T12:10:51.745Z,12.93
2022-12-25T12:15:56.525Z,15.45
2022-12-25T12:21:01.663Z,16.63
2022-12-25T12:26:05.215Z,17.63
2022-12-25T12:31:10.508Z,13.50
2022-12-25T12:36:15.411Z,16.23
2022-12-25T12:41:19.119Z,18.58
2022-12-25T12:46:30.601Z,18.95
2022-12-25T12:51:35.718Z,16.50
2022-12-25T12:56:39.649Z,14.60
2022-12-25T13:01:52.775Z,18.10
2022-12-25T13:07:05.199Z,13.07
2022-12-25T13:12:09.389Z,15.88
2022-12-25T13:17:19.386Z,16.98
2022-12-25T13:22:27.536Z,15.25
2022-12-25T13:27:32.542Z,18.60
2022-12-25T13:32:36.933Z,17.27
2022-12-25T13:37:39.937Z,17.30
2022-12-25T13:42:48.046Z,17.30
2022-12-25T13:47:55.684Z,15.93
2022-12-25T13:53:11.178Z,22.38
2022-12-25T13:58:26.058Z,21.30
2022-12-25T14:03:35.838Z,22.90
2022-12-25T14:08:38.916Z,23.98
2022-12-25T14:13:43.814Z,21.15
2022-12-25T14:18:56.202Z,25.13
2022-12-25T14:23:59.551Z,20.08
2022-12-25T14:29:16.832Z,26.75
2022-12-25T14:34:24.046Z,19.88
2022-12-25T14:39:31.918Z,20.05
2022-12-25T14:44:36.820Z,19.23
2022-12-25T14:49:41.282Z,21.42
2022-12-25T14:54:47.754Z,20.20
2022-12-25T14:59:57.808Z,20.33
2022-12-25T15:05:01.903Z,17.23
2022-12-25T15:10:57.564Z,17.20
2022-12-25T15:15:34.794Z,20.57
2022-12-25T15:20:39.071Z,17.10
2022-12-25T15:25:41.848Z,15.27
2022-12-25T15:30:44.929Z,15.18
2022-12-25T15:35:49.114Z,20.70
2022-12-25T15:40:52.695Z,19.52
2022-12-25T15:45:55.571Z,20.27
2022-12-25T15:51:00.189Z,21.55
2022-12-25T15:56:02.926Z,19.30
2022-12-25T16:01:06.050Z,19.80
2022-12-25T16:06:12.735Z,20.20
2022-12-25T16:11:15.473Z,19.05
2022-12-25T16:16:19.198Z,16.63
2022-12-25T16:21:24.046Z,18.75
2022-12-25T16:26:27.671Z,17.60
2022-12-25T16:31:30.701Z,17.33
2022-12-25T16:36:35.832Z,19.35
2022-12-25T16:41:39.013Z,19.58
2022-12-25T16:46:42.116Z,18.40
2022-12-25T16:51:46.328Z,18.08
2022-12-25T16:56:49.130Z,17.65
2022-12-25T17:01:52.018Z,18.48
2022-12-25T17:06:56.828Z,18.20
2022-12-25T17:11:59.729Z,21.33
2022-12-25T17:17:03.408Z,17.58
2022-12-25T17:22:07.623Z,17.92
2022-12-25T17:27:10.657Z,22.08
2022-12-25T17:32:13.891Z,17.88
2022-12-25T17:37:18.111Z,19.45
2022-12-25T17:42:21.263Z,17.58
2022-12-25T17:47:24.189Z,18.63
2022-12-25T17:52:28.386Z,18.45
2022-12-25T17:57:31.411Z,15.95
2022-12-25T18:02:34.415Z,19.70
2022-12-25T18:07:38.684Z,20.00
2022-12-25T18:12:43.795Z,20.73
2022-12-25T18:17:46.621Z,21.92
2022-12-25T18:22:50.775Z,24.25
2022-12-25T18:27:53.893Z,23.27
2022-12-25T18:32:56.641Z,23.80
2022-12-25T18:38:00.792Z,22.95
2022-12-25T18:43:04.361Z,22.10
2022-12-25T18:48:07.270Z,21.67
2022-12-25T18:53:11.402Z,21.42
2022-12-25T18:58:14.214Z,22.13
2022-12-25T19:03:17.048Z,21.67
2022-12-25T19:08:21.186Z,19.20
2022-12-25T19:13:24.129Z,24.45
2022-12-25T19:18:26.996Z,21.20
2022-12-25T19:23:31.236Z,21.00
2022-12-25T19:28:34.193Z,27.65
2022-12-25T19:33:38.417Z,20.65
2022-12-25T19:38:47.137Z,24.08
2022-12-25T19:43:53.488Z,22.02
2022-12-25T19:48:57.658Z,23.63
2022-12-25T19:54:04.307Z,19.67
2022-12-25T19:59:08.093Z,21.15
2022-12-25T20:04:11.584Z,20.95
2022-12-25T20:09:21.056Z,16.33
2022-12-25T20:14:24.535Z,15.82
2022-12-25T20:19:27.335Z,16.25
2022-12-25T20:24:34.318Z,22.90
2022-12-25T20:29:38.354Z,17.77
2022-12-25T20:34:43.053Z,11.15
2022-12-25T20:39:47.265Z,12.88
2022-12-25T20:44:50.624Z,13.55
2022-12-25T20:49:58.291Z,16.55
2022-12-25T20:55:05.479Z,16.73
2022-12-25T21:00:09.682Z,14.13
2022-12-25T21:05:13.217Z,14.20
2022-12-25T21:10:17.524Z,12.90
2022-12-25T21:15:20.582Z,13.43
2022-12-25T21:20:23.418Z,15.43
2022-12-25T21:25:30.879Z,19.17
2022-12-25T21:30:36.336Z,13.73
2022-12-25T21:35:42.061Z,13.27
2022-12-25T21:40:46.289Z,12.35
2022-12-25T21:45:51.754Z,9.63
2022-12-25T21:51:12.291Z,9.85
2022-12-25T21:56:19.393Z,16.50
2022-12-25T22:01:26.589Z,17.15
2022-12-25T22:06:50.088Z,15.05
2022-12-25T22:12:11.994Z,19.63
2022-12-25T22:17:34.577Z,20.45
2022-12-25T22:22:37.779Z,18.10
2022-12-25T22:27:43.440Z,17.52
2022-12-25T22:32:47.230Z,18.83
2022-12-25T22:37:53.363Z,19.00
2022-12-25T22:42:57.988Z,18.38
2022-12-25T22:48:00.693Z,14.65
2022-12-25T22:53:03.550Z,11.63
2022-12-25T22:58:07.618Z,11.95
2022-12-25T23:03:10.763Z,12.52
2022-12-25T23:08:13.686Z,10.52
2022-12-25T23:13:35.539Z,11.63
2022-12-25T23:18:55.859Z,12.68
2022-12-25T23:24:16.195Z,14.70
2022-12-25T23:29:40.359Z,12.07
2022-12-25T23:34:44.545Z,16.88
2022-12-25T23:39:47.904Z,14.35
2022-12-25T23:44:52.085Z,15.98
2022-12-25T23:49:55.382Z,17.70
2022-12-25T23:54:58.228Z,18.67
